createdAt,value
2023-05-21T00:01:16.349Z,14.44
2023-05-21T00:06:37.261Z,14.39
2023-05-21T00:11:58.421Z,14.37
2023-05-21T00:17:18.965Z,14.37
2023-05-21T00:22:40.370Z,14.31
2023-05-21T00:28:01.366Z,14.29
2023-05-21T00:33:22.019Z,14.28
2023-05-21T00:38:43.853Z,14.25
2023-05-21T00:44:04.840Z,14.24
2023-05-21T00:49:25.971Z,14.18
2023-05-21T00:54:47.651Z,14.16
2023-05-21T01:00:09.132Z,14.11
2023-05-21T01:05:30.154Z,14.03
2023-05-21T01:10:50.696Z,13.94
2023-05-21T01:16:13.463Z,13.91
2023-05-21T01:21:36.056Z,13.87
2023-05-21T01:26:58.677Z,13.87
2023-05-21T01:32:25.283Z,13.86
2023-05-21T01:37:51.696Z,13.84
2023-05-21T01:43:12.194Z,13.82
2023-05-21T01:48:32.941Z,13.83
2023-05-21T01:53:53.553Z,13.79
2023-05-21T01:59:14.183Z,13.82
2023-05-21T02:04:34.774Z,13.79
2023-05-21T02:09:55.483Z,13.76
2023-05-21T02:15:18.137Z,13.71
2023-05-21T02:20:39.426Z,13.64
2023-05-21T02:26:00.132Z,13.61
2023-05-21T02:31:20.773Z,13.57
2023-05-21T02:36:41.666Z,13.49
2023-05-21T02:42:02.522Z,13.43
2023-05-21T02:47:23.876Z,13.39
2023-05-21T02:52:44.300Z,13.40
2023-05-21T02:58:05.123Z,13.38
2023-05-21T03:03:25.956Z,13.41
2023-05-21T03:08:46.935Z,13.44
2023-05-21T03:14:07.514Z,13.48
2023-05-21T03:19:30.466Z,13.50
2023-05-21T03:24:51.676Z,13.56
2023-05-21T03:30:12.660Z,13.67
2023-05-21T03:35:50.897Z,13.77
2023-05-21T03:41:11.786Z,13.90
2023-05-21T03:46:34.486Z,14.06
2023-05-21T03:52:04.715Z,14.14
2023-05-21T03:57:25.162Z,14.31
2023-05-21T04:02:45.854Z,14.57
2023-05-21T04:08:10.356Z,14.81
2023-05-21T04:13:31.335Z,15.08
2023-05-21T04:18:52.371Z,15.38
2023-05-21T04:24:13.719Z,15.67
2023-05-21T04:30:00.703Z,16.05
2023-05-21T04:35:21.437Z,16.43
2023-05-21T04:40:42.258Z,16.79
2023-05-21T04:46:02.897Z,17.15
2023-05-21T04:51:24.909Z,17.49
2023-05-21T04:56:47.435Z,17.92
2023-05-21T05:02:08.755Z,18.34
2023-05-21T05:07:29.656Z,18.81
2023-05-21T05:12:50.650Z,19.36
2023-05-21T05:18:12.911Z,19.89
2023-05-21T05:23:34.767Z,20.03
2023-05-21T05:28:55.735Z,20.38
2023-05-21T05:34:16.567Z,20.87
2023-05-21T05:39:37.549Z,21.15
2023-05-21T05:44:58.672Z,21.71
2023-05-21T05:50:19.899Z,22.26
2023-05-21T05:55:41.237Z,22.87
2023-05-21T06:01:02.437Z,23.14
2023-05-21T06:06:24.117Z,23.57
2023-05-21T06:11:45.500Z,23.95
2023-05-21T06:17:06.333Z,24.40
2023-05-21T06:22:27.757Z,24.41
2023-05-21T06:27:49.375Z,24.43
2023-05-21T06:33:15.293Z,24.50
2023-05-21T06:38:36.956Z,25.15
2023-05-21T06:43:58.101Z,25.59
2023-05-21T06:49:38.091Z,26.52
2023-05-21T06:54:58.997Z,26.80
2023-05-21T07:00:23.232Z,27.53
2023-05-21T07:05:44.676Z,27.95
2023-05-21T07:11:06.313Z,28.66
2023-05-21T07:16:27.836Z,29.22
2023-05-21T07:21:49.414Z,28.19
2023-05-21T07:27:24.752Z,28.07
2023-05-21T07:32:48.114Z,28.42
2023-05-21T07:38:09.393Z,28.59
2023-05-21T07:43:31.961Z,28.79
2023-05-21T07:48:53.249Z,28.50
2023-05-21T07:54:14.643Z,29.18
2023-05-21T07:59:36.517Z,28.96
2023-05-21T08:04:57.848Z,28.59
2023-05-21T08:10:19.609Z,28.71
2023-05-21T08:15:43.033Z,29.08
2023-05-21T08:21:05.308Z,29.62
2023-05-21T08:26:26.835Z,30.25
2023-05-21T08:31:47.944Z,30.34
2023-05-21T08:37:09.373Z,30.16
2023-05-21T08:42:53.075Z,30.44
2023-05-21T08:48:23.431Z,29.90
2023-05-21T08:53:45.874Z,29.80
2023-05-21T08:59:09.680Z,29.96
2023-05-21T09:04:31.569Z,30.30
2023-05-21T09:10:03.422Z,30.47
2023-05-21T09:15:24.894Z,30.96
2023-05-21T09:20:46.487Z,30.90
2023-05-21T09:26:11.398Z,30.73
2023-05-21T09:31:33.402Z,30.40
2023-05-21T09:36:57.751Z,30.05
2023-05-21T09:42:21.741Z,30.81
2023-05-21T09:47:44.012Z,30.99
2023-05-21T09:53:05.318Z,30.95
2023-05-21T09:58:26.729Z,30.89
2023-05-21T10:03:50.782Z,29.79
2023-05-21T10:09:11.815Z,30.17
2023-05-21T10:14:32.961Z,30.39
2023-05-21T10:19:54.112Z,30.46
2023-05-21T10:25:14.979Z,28.87
2023-05-21T10:30:36.862Z,29.61
2023-05-21T10:35:58.758Z,30.01
2023-05-21T10:41:20.320Z,29.53
2023-05-21T10:47:43.002Z,28.42
2023-05-21T10:53:25.474Z,28.03
2023-05-21T10:58:57.750Z,27.89
2023-05-21T11:04:22.124Z,27.13
2023-05-21T11:09:43.421Z,27.66
2023-05-21T11:15:04.852Z,27.72
2023-05-21T11:20:34.318Z,28.60
2023-05-21T11:26:01.462Z,29.01
2023-05-21T11:31:26.129Z,29.00
2023-05-21T11:36:47.878Z,28.54
2023-05-21T11:42:08.890Z,28.31
2023-05-21T11:47:30.495Z,27.80
2023-05-21T11:52:52.959Z,27.93
2023-05-21T11:58:14.672Z,28.22
2023-05-21T12:03:36.139Z,28.06
2023-05-21T12:08:58.585Z,27.80
2023-05-21T12:14:19.377Z,27.73
2023-05-21T12:19:40.608Z,27.93
2023-05-21T12:25:02.150Z,27.49
2023-05-21T12:30:23.226Z,27.38
2023-05-21T12:35:50.582Z,27.63
2023-05-21T12:41:11.375Z,27.69
2023-05-21T12:46:32.446Z,27.81
2023-05-21T12:51:53.434Z,27.81
2023-05-21T12:57:18.598Z,26.92
2023-05-21T13:02:44.342Z,27.06
2023-05-21T13:08:06.223Z,27.19
2023-05-21T13:13:27.007Z,27.23
2023-05-21T13:18:47.815Z,27.37
2023-05-21T13:24:08.444Z,27.58
2023-05-21T13:29:29.223Z,27.46
2023-05-21T13:34:52.657Z,27.14
2023-05-21T13:40:15.274Z,26.99
2023-05-21T13:45:36.783Z,26.40
2023-05-21T13:50:57.699Z,26.34
2023-05-21T13:56:18.580Z,26.63
2023-05-21T14:01:39.311Z,26.92
2023-05-21T14:07:00.004Z,26.86
2023-05-21T14:12:21.847Z,26.41
2023-05-21T14:17:42.700Z,26.48
2023-05-21T14:23:03.434Z,26.67
2023-05-21T14:28:24.292Z,26.63
2023-05-21T14:33:44.712Z,26.60
2023-05-21T14:39:05.983Z,26.73
2023-05-21T14:44:27.000Z,26.78
2023-05-21T14:49:49.012Z,26.80
2023-05-21T14:55:12.854Z,27.03
2023-05-21T15:00:34.311Z,26.99
2023-05-21T15:05:55.050Z,26.77
2023-05-21T15:11:15.872Z,26.53
2023-05-21T15:16:37.077Z,26.36
2023-05-21T15:21:57.925Z,26.31
2023-05-21T15:27:18.595Z,26.33
2023-05-21T15:32:39.251Z,26.24
2023-05-21T15:38:00.094Z,26.28
2023-05-21T15:43:20.668Z,26.32
2023-05-21T15:48:41.302Z,26.09
2023-05-21T15:54:02.016Z,25.85
2023-05-21T15:59:22.655Z,25.78
2023-05-21T16:04:43.625Z,25.71
2023-05-21T16:10:04.426Z,25.66
2023-05-21T16:15:25.621Z,25.60
2023-05-21T16:20:47.099Z,25.44
2023-05-21T16:26:08.717Z,25.35
2023-05-21T16:31:29.561Z,25.29
2023-05-21T16:36:51.670Z,25.26
2023-05-21T16:42:12.195Z,25.19
2023-05-21T16:47:33.075Z,25.04
2023-05-21T16:52:53.550Z,24.96
2023-05-21T16:58:14.282Z,24.90
2023-05-21T17:03:35.327Z,24.79
2023-05-21T17:08:56.083Z,24.71
2023-05-21T17:14:32.523Z,24.63
2023-05-21T17:19:55.019Z,24.47
2023-05-21T17:25:16.109Z,24.02
2023-05-21T17:30:37.236Z,23.67
2023-05-21T17:35:58.020Z,23.45
2023-05-21T17:41:19.377Z,23.24
2023-05-21T17:46:40.163Z,23.00
2023-05-21T17:52:03.079Z,22.79
2023-05-21T17:57:24.572Z,22.62
2023-05-21T18:02:46.186Z,22.43
2023-05-21T18:08:09.976Z,22.26
2023-05-21T18:13:30.979Z,22.04
2023-05-21T18:18:51.969Z,21.91
2023-05-21T18:24:12.981Z,21.72
2023-05-21T18:29:33.707Z,21.55
2023-05-21T18:34:54.360Z,21.43
2023-05-21T18:40:15.227Z,21.25
2023-05-21T18:45:36.763Z,21.10
2023-05-21T18:50:57.983Z,20.97
2023-05-21T18:56:18.675Z,20.79
2023-05-21T19:01:39.430Z,20.64
2023-05-21T19:06:59.938Z,20.53
2023-05-21T19:12:20.846Z,20.41
2023-05-21T19:17:41.661Z,20.30
2023-05-21T19:23:02.511Z,20.17
2023-05-21T19:28:23.311Z,20.11
2023-05-21T19:33:43.997Z,20.03
2023-05-21T19:39:04.607Z,19.99
2023-05-21T19:44:25.405Z,19.93
2023-05-21T19:49:46.137Z,19.86
2023-05-21T19:55:08.704Z,19.78
2023-05-21T20:00:29.636Z,19.65
2023-05-21T20:05:50.488Z,19.57
2023-05-21T20:11:11.275Z,19.48
2023-05-21T20:16:31.958Z,19.36
2023-05-21T20:21:52.891Z,19.28
2023-05-21T20:27:18.614Z,19.25
2023-05-21T20:32:39.210Z,19.20
2023-05-21T20:38:02.228Z,19.14
2023-05-21T20:43:24.535Z,19.08
2023-05-21T20:48:45.642Z,19.02
2023-05-21T20:54:06.731Z,18.98
2023-05-21T20:59:27.839Z,18.92
2023-05-21T21:04:49.182Z,18.83
2023-05-21T21:10:10.113Z,18.78
2023-05-21T21:15:30.972Z,18.71
2023-05-21T21:20:51.831Z,18.64
2023-05-21T21:26:12.712Z,18.59
2023-05-21T21:31:34.105Z,18.54
2023-05-21T21:36:54.703Z,18.46
2023-05-21T21:42:15.648Z,18.41
2023-05-21T21:47:36.848Z,18.36
2023-05-21T21:52:57.513Z,18.27
2023-05-21T21:58:18.237Z,18.22
2023-05-21T22:03:38.923Z,18.15
2023-05-21T22:08:59.547Z,18.09
2023-05-21T22:14:20.368Z,17.94
2023-05-21T22:19:41.239Z,17.81
2023-05-21T22:25:02.142Z,17.68
2023-05-21T22:30:22.999Z,17.59
2023-05-21T22:35:44.799Z,17.44
2023-05-21T22:41:05.827Z,17.42
2023-05-21T22:46:26.629Z,17.35
2023-05-21T22:51:48.063Z,17.32
2023-05-21T22:57:09.141Z,17.26
2023-05-21T23:02:30.532Z,17.18
2023-05-21T23:07:51.932Z,17.17
2023-05-21T23:13:12.996Z,17.12
2023-05-21T23:18:34.765Z,17.12
2023-05-21T23:23:55.746Z,17.14
2023-05-21T23:29:16.599Z,17.13
2023-05-21T23:34:37.455Z,17.10
2023-05-21T23:39:58.459Z,17.04
2023-05-21T23:45:19.163Z,16.83
2023-05-21T23:50:40.306Z,16.57
2023-05-21T23:56:01.019Z,16.50
